Ital Oriente — A8LN2 — position and weather

sailwx.info

Track history (hours):
 
Tides and Currents Weather Stations Pressure Air Temp Water Temp Dewpoint Dewpoint Depression Visibility Wind Speed Wind Dir Waves Ship Positions

Ital Oriente

Last reported at 2014-Nov-23 20:33 UTC. Time now 2014-Nov-23 21:16 UTC.
Position N 37°55' E 023°35'.

Length 222 m; draft 10.3 m.

Type: Cargo ship. MMSI: 636091278.

Date/timePositionNaut miles runAvg speedWind from/ knotsBaromVisibWave heightAir tempDewpointWater temp
2014-Nov-23 20:33N 37°55' E 023°35'4 3.8
2014-Nov-23 19:33N 37°52' E 023°33'2 1.9
2014-Nov-23 18:31N 37°51' E 023°30'0 0.0
2014-Nov-23 17:31N 37°51' E 023°30'0 0.0
2014-Nov-23 16:31N 37°51' E 023°30'0 0.0
2014-Nov-23 15:31N 37°51' E 023°30'0 0.0
2014-Nov-23 14:31N 37°51' E 023°30'0 0.1
2014-Nov-23 13:31N 37°51' E 023°30'0 0.1
2014-Nov-23 12:31N 37°51' E 023°30'0 0.0
2014-Nov-23 11:31N 37°51' E 023°30'0 0.0
2014-Nov-23 10:33N 37°51' E 023°30'0 0.0
2014-Nov-23 09:33N 37°51' E 023°30'0 0.1
2014-Nov-23 08:33N 37°51' E 023°30'0 0.0
2014-Nov-23 07:33N 37°51' E 023°30'0 0.0
2014-Nov-23 06:33N 37°51' E 023°30'0 0.0
2014-Nov-23 05:33N 37°51' E 023°30'0 0.1
2014-Nov-23 04:33N 37°51' E 023°30'4 3.6
2014-Nov-23 03:33N 37°50' E 023°35'1111.0
2014-Nov-23 02:33N 37°42' E 023°44'1110.8
2014-Nov-23 01:33N 37°36' E 023°55'1110.8
2014-Nov-23 00:33N 37°37' E 024°09'4811.1
2014-Nov-22 20:14N 38°18' E 024°39'  
2014-Nov-19 05:33N 39°38' E 024°03'  
2014-Nov-15 20:16N 38°18' E 024°52'17 6.1
2014-Nov-15 17:33N 38°01' E 024°48'2 1.5
2014-Nov-15 16:33N 38°03' E 024°48'1212.4
2014-Nov-15 15:33N 37°55' E 024°35'1716.7
2014-Nov-15 14:33N 37°44' E 024°19'1615.6
2014-Nov-15 13:33N 37°35' E 024°03'1716.5
2014-Nov-15 12:33N 37°39' E 023°43'1312.7
2014-Nov-15 11:33N 37°51' E 023°36'7 6.6
2014-Nov-15 10:33N 37°57' E 023°35'0 0.0
2014-Nov-15 09:33N 37°57' E 023°35'0 0.0
2014-Nov-15 08:33N 37°57' E 023°35'0 0.0
2014-Nov-15 07:33N 37°57' E 023°35'0 0.0
2014-Nov-15 06:33N 37°57' E 023°35'0 0.0
2014-Nov-15 05:33N 37°57' E 023°35'0 0.0
2014-Nov-15 04:33N 37°57' E 023°35'0 0.0
2014-Nov-15 03:33N 37°57' E 023°35'0 0.0
2014-Nov-15 02:33N 37°57' E 023°35'0 0.0
2014-Nov-15 01:30N 37°57' E 023°35'0 0.0
2014-Nov-15 00:33N 37°57' E 023°35'0 0.0
2014-Nov-14 23:33N 37°57' E 023°35'0 0.0
2014-Nov-14 22:33N 37°57' E 023°35'0 0.0
2014-Nov-14 21:33N 37°57' E 023°35'0 0.0
2014-Nov-14 20:33N 37°57' E 023°35'0 0.0
2014-Nov-14 19:33N 37°57' E 023°35'0 0.0
2014-Nov-14 18:33N 37°57' E 023°35'0 0.0
2014-Nov-14 17:33N 37°57' E 023°35'0 0.0
2014-Nov-14 16:33N 37°57' E 023°35'0 0.0
2014-Nov-14 15:33N 37°57' E 023°35'0 0.0
2014-Nov-14 14:33N 37°57' E 023°35'0 0.0
2014-Nov-14 11:24N 37°57' E 023°35'0 0.0
2014-Nov-14 10:33N 37°57' E 023°35'0 0.0
2014-Nov-14 09:21N 37°57' E 023°35'0 0.0
2014-Nov-14 08:18N 37°57' E 023°35'0 0.0
2014-Nov-14 07:33N 37°57' E 023°35'0 0.0
2014-Nov-14 04:27N 37°57' E 023°35'0 0.0
2014-Nov-14 03:12N 37°57' E 023°35'0 0.0
2014-Nov-13 23:27N 37°57' E 023°35'2 2.6
2014-Nov-13 22:33N 37°55' E 023°37'1413.9
2014-Nov-13 21:33N 37°43' E 023°44'  
Track history (hours):
 
Tides and Currents Weather Stations Pressure Air Temp Water Temp Dewpoint Dewpoint Depression Visibility Wind Speed Wind Dir Waves Ship Positions

Ital Oriente

Last reported at 2014-Nov-23 20:33 UTC. Time now 2014-Nov-23 21:16 UTC.
Position N 37°55' E 023°35'.

Length 222 m; draft 10.3 m.

Type: Cargo ship. MMSI: 636091278.

Date/timePositionNaut miles runAvg speedWind from/ knotsBaromVisibWave heightAir tempDewpointWater temp
2014-Nov-23 20:33N 37°55' E 023°35'4 3.8
2014-Nov-23 19:33N 37°52' E 023°33'2 1.9
2014-Nov-23 18:31N 37°51' E 023°30'0 0.0
2014-Nov-23 17:31N 37°51' E 023°30'0 0.0
2014-Nov-23 16:31N 37°51' E 023°30'0 0.0
2014-Nov-23 15:31N 37°51' E 023°30'0 0.0
2014-Nov-23 14:31N 37°51' E 023°30'0 0.1
2014-Nov-23 13:31N 37°51' E 023°30'0 0.1
2014-Nov-23 12:31N 37°51' E 023°30'0 0.0
2014-Nov-23 11:31N 37°51' E 023°30'0 0.0
2014-Nov-23 10:33N 37°51' E 023°30'0 0.0
2014-Nov-23 09:33N 37°51' E 023°30'0 0.1
2014-Nov-23 08:33N 37°51' E 023°30'0 0.0
2014-Nov-23 07:33N 37°51' E 023°30'0 0.0
2014-Nov-23 06:33N 37°51' E 023°30'0 0.0
2014-Nov-23 05:33N 37°51' E 023°30'0 0.1
2014-Nov-23 04:33N 37°51' E 023°30'4 3.6
2014-Nov-23 03:33N 37°50' E 023°35'1111.0
2014-Nov-23 02:33N 37°42' E 023°44'1110.8
2014-Nov-23 01:33N 37°36' E 023°55'1110.8
2014-Nov-23 00:33N 37°37' E 024°09'4811.1
2014-Nov-22 20:14N 38°18' E 024°39'  
2014-Nov-19 05:33N 39°38' E 024°03'  
2014-Nov-15 20:16N 38°18' E 024°52'17 6.1
2014-Nov-15 17:33N 38°01' E 024°48'2 1.5
2014-Nov-15 16:33N 38°03' E 024°48'1212.4
2014-Nov-15 15:33N 37°55' E 024°35'1716.7
2014-Nov-15 14:33N 37°44' E 024°19'1615.6
2014-Nov-15 13:33N 37°35' E 024°03'1716.5
2014-Nov-15 12:33N 37°39' E 023°43'1312.7
2014-Nov-15 11:33N 37°51' E 023°36'7 6.6
2014-Nov-15 10:33N 37°57' E 023°35'0 0.0
2014-Nov-15 09:33N 37°57' E 023°35'0 0.0
2014-Nov-15 08:33N 37°57' E 023°35'0 0.0
2014-Nov-15 07:33N 37°57' E 023°35'0 0.0
2014-Nov-15 06:33N 37°57' E 023°35'0 0.0
2014-Nov-15 05:33N 37°57' E 023°35'0 0.0
2014-Nov-15 04:33N 37°57' E 023°35'0 0.0
2014-Nov-15 03:33N 37°57' E 023°35'0 0.0
2014-Nov-15 02:33N 37°57' E 023°35'0 0.0
2014-Nov-15 01:30N 37°57' E 023°35'0 0.0
2014-Nov-15 00:33N 37°57' E 023°35'0 0.0
2014-Nov-14 23:33N 37°57' E 023°35'0 0.0
2014-Nov-14 22:33N 37°57' E 023°35'0 0.0
2014-Nov-14 21:33N 37°57' E 023°35'0 0.0
2014-Nov-14 20:33N 37°57' E 023°35'0 0.0
2014-Nov-14 19:33N 37°57' E 023°35'0 0.0
2014-Nov-14 18:33N 37°57' E 023°35'0 0.0
2014-Nov-14 17:33N 37°57' E 023°35'0 0.0
2014-Nov-14 16:33N 37°57' E 023°35'0 0.0
2014-Nov-14 15:33N 37°57' E 023°35'0 0.0
2014-Nov-14 14:33N 37°57' E 023°35'0 0.0
2014-Nov-14 11:24N 37°57' E 023°35'0 0.0
2014-Nov-14 10:33N 37°57' E 023°35'0 0.0
2014-Nov-14 09:21N 37°57' E 023°35'0 0.0
2014-Nov-14 08:18N 37°57' E 023°35'0 0.0
2014-Nov-14 07:33N 37°57' E 023°35'0 0.0
2014-Nov-14 04:27N 37°57' E 023°35'0 0.0
2014-Nov-14 03:12N 37°57' E 023°35'0 0.0
2014-Nov-13 23:27N 37°57' E 023°35'2 2.6
2014-Nov-13 22:33N 37°55' E 023°37'1413.9
2014-Nov-13 21:33N 37°43' E 023°44'  

Dump ship's entire track history